Time;durP1;ratioP1;P1;durP2;ratioP2;P2;SDS_P1;SDS_P2;PMS_P1;PMS_P2;Temp;Humidity;BMP_temperature;BMP_pressure;BME280_temperature;BME280_humidity;BME280_pressure;Samples;Min_cycle;Max_cycle;Signal;HPM_P1;HPM_P2
2023/04/12 00:04:54;;;;;;;7.90;2.20;;;7.50;99.90;;;;;;20770439;28;20061;-80
2023/04/12 00:14:54;;;;;;;6.05;2.85;;;7.60;99.90;;;;;;20770514;28;20078;-80
2023/04/12 00:24:55;;;;;;;5.70;2.90;;;7.50;99.90;;;;;;20769877;28;20030;-82
2023/04/12 00:34:56;;;;;;;12.18;2.38;;;7.40;99.90;;;;;;20757762;28;20061;-81
2023/04/12 00:44:57;;;;;;;8.10;2.83;;;7.40;99.90;;;;;;20762424;28;20502;-81
2023/04/12 00:54:58;;;;;;;3.67;2.20;;;7.40;99.90;;;;;;20763680;28;20033;-81
2023/04/12 01:04:59;;;;;;;6.85;2.10;;;7.30;99.90;;;;;;20753626;28;20293;-81
2023/04/12 01:15:07;;;;;;;6.13;2.30;;;7.30;99.90;;;;;;20757911;28;20036;-80
2023/04/12 01:25:31;;;;;;;10.43;3.35;;;7.30;99.90;;;;;;20761297;28;20124;-80
2023/04/12 01:35:32;;;;;;;12.90;3.03;;;7.40;99.90;;;;;;20752082;28;20030;-81
2023/04/12 01:45:33;;;;;;;6.90;4.07;;;7.30;99.90;;;;;;20763107;28;20390;-81
2023/04/12 01:55:37;;;;;;;13.82;5.90;;;7.40;99.90;;;;;;20763551;28;20034;-81
2023/04/12 02:05:38;;;;;;;11.20;5.30;;;7.40;99.90;;;;;;20762568;28;20489;-81
2023/04/12 02:15:39;;;;;;;;;;;7.40;99.90;;;;;;20764235;28;20441;-81
2023/04/12 02:25:40;;;;;;;10.48;5.53;;;7.40;99.90;;;;;;20762950;28;19910;-82
2023/04/12 02:35:41;;;;;;;;;;;7.40;99.90;;;;;;20762145;28;20037;-81
2023/04/12 02:45:47;;;;;;;15.23;5.57;;;7.40;99.90;;;;;;20777810;28;19967;-81
2023/04/12 02:55:48;;;;;;;13.25;5.80;;;7.40;99.90;;;;;;20842728;28;20563;-80
2023/04/12 03:05:55;;;;;;;14.40;7.93;;;7.40;99.90;;;;;;20796601;28;20037;-81
2023/04/12 03:15:58;;;;;;;19.65;8.93;;;7.50;99.90;;;;;;20774766;28;20127;-80
2023/04/12 03:26:06;;;;;;;21.35;9.35;;;7.50;99.90;;;;;;20773942;28;20033;-81
2023/04/12 03:36:09;;;;;;;20.25;9.55;;;7.50;99.90;;;;;;20771860;28;20062;-81
2023/04/12 03:46:10;;;;;;;23.48;11.00;;;7.50;99.90;;;;;;20770268;28;20033;-81
2023/04/12 03:56:11;;;;;;;;;;;7.40;99.90;;;;;;20773108;28;20029;-81
2023/04/12 04:06:12;;;;;;;21.23;8.30;;;7.50;99.90;;;;;;20768951;28;19921;-81
2023/04/12 04:16:13;;;;;;;;;;;7.50;99.90;;;;;;20762892;28;20053;-81
2023/04/12 04:26:15;;;;;;;24.95;8.45;;;7.40;99.90;;;;;;20763634;28;19909;-81
2023/04/12 04:36:36;;;;;;;18.80;9.27;;;7.50;99.90;;;;;;20762383;28;20034;-80
2023/04/12 04:46:39;;;;;;;23.42;9.13;;;7.40;99.90;;;;;;20761278;28;20030;-80
2023/04/12 04:56:39;;;;;;;17.80;8.63;;;7.40;99.90;;;;;;20765813;28;20026;-80
2023/04/12 05:06:41;;;;;;;15.50;7.65;;;7.40;99.90;;;;;;20762742;28;20041;-77
2023/04/12 05:16:44;;;;;;;18.52;7.80;;;7.30;99.90;;;;;;20761318;28;20056;-78
2023/04/12 05:26:45;;;;;;;17.73;7.80;;;7.30;99.90;;;;;;20758771;28;20042;-80
2023/04/12 05:36:48;;;;;;;18.00;8.13;;;7.30;99.90;;;;;;20756986;28;20037;-81
2023/04/12 05:46:49;;;;;;;18.23;8.43;;;7.30;99.90;;;;;;20760510;28;20088;-80
2023/04/12 05:56:53;;;;;;;20.60;8.57;;;7.40;99.90;;;;;;20760599;28;20033;-79
2023/04/12 06:06:55;;;;;;;16.38;7.82;;;7.40;99.90;;;;;;20758956;28;20515;-79
2023/04/12 06:16:56;;;;;;;15.77;7.93;;;7.40;99.90;;;;;;20758341;28;20500;-80
2023/04/12 06:26:56;;;;;;;18.53;9.60;;;7.50;99.90;;;;;;20756507;28;20049;-80
2023/04/12 06:36:58;;;;;;;16.65;8.23;;;7.60;99.90;;;;;;20762882;28;20281;-79
2023/04/12 06:46:59;;;;;;;24.77;8.52;;;7.80;99.90;;;;;;20781539;28;20038;-80
2023/04/12 06:57:00;;;;;;;;;;;8.00;99.90;;;;;;20767163;28;20033;-80
2023/04/12 07:07:01;;;;;;;16.42;7.90;;;8.30;99.90;;;;;;20737037;28;1133870;-80
2023/04/12 07:17:02;;;;;;;15.17;8.50;;;8.50;99.90;;;;;;20772984;28;20128;-79
2023/04/12 07:27:03;;;;;;;17.93;9.67;;;8.40;99.90;;;;;;20772767;28;20459;-79
2023/04/12 07:37:04;;;;;;;18.43;8.73;;;9.00;99.90;;;;;;20770168;28;20034;-79
2023/04/12 07:47:06;;;;;;;13.13;7.93;;;9.20;99.90;;;;;;20769267;28;20034;-79
2023/04/12 07:57:07;;;;;;;12.45;7.45;;;9.80;99.90;;;;;;20768278;28;20038;-80
2023/04/12 08:07:08;;;;;;;11.90;7.35;;;10.00;99.90;;;;;;20766080;28;20045;-80
2023/04/12 08:17:10;;;;;;;10.13;6.03;;;10.40;99.90;;;;;;20765941;28;20501;-80
2023/04/12 08:27:12;;;;;;;9.38;5.43;;;11.20;99.90;;;;;;20767412;28;20030;-80
2023/04/12 08:37:13;;;;;;;8.43;4.80;;;11.80;99.90;;;;;;20766438;28;20029;-80
2023/04/12 08:47:16;;;;;;;7.47;4.67;;;12.50;99.90;;;;;;20767752;28;20029;-80
2023/04/12 08:57:17;;;;;;;7.00;4.05;;;13.30;99.90;;;;;;20765304;28;20029;-80
2023/04/12 09:07:21;;;;;;;7.53;4.88;;;13.10;99.90;;;;;;20765088;28;20041;-80
2023/04/12 09:17:24;;;;;;;7.32;4.07;;;13.00;99.90;;;;;;20758365;28;20042;-80
2023/04/12 09:27:27;;;;;;;9.50;4.50;;;12.50;99.90;;;;;;20760281;28;20037;-79
2023/04/12 09:37:28;;;;;;;6.25;4.32;;;12.60;99.90;;;;;;20759990;28;20053;-80
2023/04/12 09:47:39;;;;;;;10.40;4.30;;;13.10;99.90;;;;;;20759109;28;20076;-80
2023/04/12 09:57:41;;;;;;;6.35;3.90;;;13.20;99.90;;;;;;20758687;28;20514;-79
2023/04/12 10:07:43;;;;;;;7.32;4.30;;;12.60;99.90;;;;;;20758357;28;20099;-80
2023/04/12 10:17:48;;;;;;;;;;;12.30;99.90;;;;;;20757234;28;20032;-79
2023/04/12 10:27:48;;;;;;;6.72;2.72;;;11.90;99.90;;;;;;20759007;28;19909;-80
2023/04/12 10:38:16;;;;;;;11.10;5.17;;;11.70;99.90;;;;;;20759614;28;20052;-80
2023/04/12 10:48:39;;;;;;;10.75;4.35;;;11.20;99.90;;;;;;20759013;28;20034;-80
2023/04/12 10:58:48;;;;;;;4.82;2.20;;;11.10;99.90;;;;;;20762411;28;20076;-80
2023/04/12 11:08:53;;;;;;;2.65;1.65;;;11.10;99.90;;;;;;20759054;28;20018;-79
2023/04/12 11:18:57;;;;;;;5.85;2.22;;;11.00;99.90;;;;;;20765179;28;20026;-79
2023/04/12 11:28:58;;;;;;;7.47;2.10;;;11.00;99.90;;;;;;20773236;28;20045;-79
2023/04/12 11:38:59;;;;;;;6.80;3.03;;;11.20;99.90;;;;;;20774642;28;20152;-80
2023/04/12 11:49:00;;;;;;;;;;;11.30;99.90;;;;;;20774751;28;20046;-80
2023/04/12 11:59:00;;;;;;;9.45;2.25;;;11.40;99.90;;;;;;20770781;28;19962;-79
2023/04/12 12:09:02;;;;;;;3.40;2.07;;;11.60;99.90;;;;;;20771453;28;20036;-80
2023/04/12 12:19:03;;;;;;;7.57;2.40;;;11.30;99.90;;;;;;20770055;28;20042;-80
2023/04/12 12:29:04;;;;;;;7.68;2.42;;;11.60;99.90;;;;;;20769086;28;20030;-80
2023/04/12 12:39:09;;;;;;;4.70;2.63;;;12.40;99.90;;;;;;20773059;28;20034;-81
2023/04/12 12:49:10;;;;;;;15.70;2.88;;;12.50;99.90;;;;;;20769725;28;20034;-80
2023/04/12 12:59:11;;;;;;;3.60;1.77;;;12.30;99.90;;;;;;20772114;28;20068;-79
2023/04/12 13:09:12;;;;;;;3.87;2.23;;;12.50;99.90;;;;;;20768434;28;20037;-79
2023/04/12 13:19:12;;;;;;;3.63;2.10;;;12.50;99.90;;;;;;20768306;28;20117;-80
2023/04/12 13:29:13;;;;;;;9.03;1.70;;;12.70;99.90;;;;;;20767578;28;20064;-80
2023/04/12 13:39:14;;;;;;;3.07;0.93;;;12.90;99.90;;;;;;20764728;28;20038;-80
2023/04/12 13:49:15;;;;;;;2.45;0.77;;;12.60;99.90;;;;;;20762064;28;20057;-80
2023/04/12 13:59:16;;;;;;;4.00;0.83;;;12.50;99.90;;;;;;20758611;28;20041;-80
2023/04/12 14:09:29;;;;;;;2.00;0.57;;;12.50;99.90;;;;;;20761208;28;20500;-80
2023/04/12 14:19:30;;;;;;;1.25;0.70;;;12.40;99.90;;;;;;20761298;28;20030;-80
2023/04/12 14:29:30;;;;;;;0.50;0.30;;;12.00;99.90;;;;;;20763111;28;20034;-80
2023/04/12 14:39:31;;;;;;;2.80;0.70;;;11.90;99.90;;;;;;20760270;28;20389;-80
2023/04/12 14:49:32;;;;;;;1.33;0.47;;;11.80;99.90;;;;;;20762362;28;20022;-80
2023/04/12 14:59:33;;;;;;;1.90;0.57;;;11.70;99.90;;;;;;20770168;28;20030;-80
2023/04/12 15:09:34;;;;;;;6.07;0.93;;;11.50;99.90;;;;;;20771323;28;20469;-80
2023/04/12 15:19:35;;;;;;;4.67;0.60;;;10.90;99.90;;;;;;20778137;28;20034;-79
2023/04/12 15:29:36;;;;;;;2.20;1.17;;;10.90;99.90;;;;;;20773172;28;20038;-80
2023/04/12 15:39:37;;;;;;;1.40;0.70;;;10.80;99.90;;;;;;20777758;28;20029;-80
2023/04/12 15:49:38;;;;;;;2.60;0.50;;;10.70;99.90;;;;;;20777991;28;20038;-80
2023/04/12 15:59:39;;;;;;;3.45;0.47;;;10.50;99.90;;;;;;20774581;28;20049;-80
2023/04/12 16:09:41;;;;;;;2.20;0.70;;;10.60;99.90;;;;;;20771455;28;20096;-81
2023/04/12 16:19:41;;;;;;;1.48;0.40;;;10.40;99.90;;;;;;20771982;28;20030;-80
2023/04/12 16:29:42;;;;;;;0.70;0.67;;;10.30;99.90;;;;;;20774649;28;20126;-81
2023/04/12 16:39:46;;;;;;;8.13;3.97;;;10.20;99.90;;;;;;20779528;28;20034;-81
2023/04/12 16:49:47;;;;;;;4.57;1.30;;;10.00;99.90;;;;;;20787088;28;20030;-80
2023/04/12 16:59:48;;;;;;;4.77;1.30;;;9.90;99.90;;;;;;20764330;28;20032;-80
2023/04/12 17:09:49;;;;;;;1.92;0.68;;;9.90;99.90;;;;;;20767965;28;20034;-80
2023/04/12 17:19:50;;;;;;;1.03;0.70;;;9.80;99.90;;;;;;20757914;28;20400;-81
2023/04/12 17:29:51;;;;;;;2.13;0.57;;;9.30;99.90;;;;;;20764775;28;20476;-80
2023/04/12 17:39:52;;;;;;;2.15;0.80;;;9.00;99.90;;;;;;20761895;28;20463;-81
2023/04/12 17:49:53;;;;;;;3.72;0.70;;;8.80;99.90;;;;;;20761617;28;20488;-80
2023/04/12 17:59:54;;;;;;;1.00;0.73;;;8.70;99.90;;;;;;20762619;28;20029;-81
2023/04/12 18:09:55;;;;;;;;;;;8.50;99.90;;;;;;20834057;28;20063;-80
2023/04/12 18:19:56;;;;;;;3.63;1.03;;;8.40;99.90;;;;;;20809813;28;19917;-81
2023/04/12 18:29:58;;;;;;;2.53;1.10;;;8.20;99.90;;;;;;20762611;28;20061;-81
2023/04/12 18:39:59;;;;;;;2.97;1.50;;;8.20;99.90;;;;;;20765348;28;20038;-80
2023/04/12 18:49:59;;;;;;;;;;;8.20;99.90;;;;;;20754064;28;20151;-80
2023/04/12 19:00:04;;;;;;;2.70;1.50;;;8.10;99.90;;;;;;20770214;28;19917;-81
2023/04/12 19:10:05;;;;;;;3.63;2.25;;;8.10;99.90;;;;;;20792804;28;20779;-81
2023/04/12 19:20:08;;;;;;;4.13;1.52;;;8.00;99.90;;;;;;20752325;28;20034;-81
2023/04/12 19:30:10;;;;;;;3.40;1.70;;;7.90;99.90;;;;;;20749911;28;20026;-81
2023/04/12 19:40:12;;;;;;;4.55;1.75;;;7.90;99.90;;;;;;20751999;28;20396;-81
2023/04/12 19:50:14;;;;;;;8.18;2.75;;;7.90;99.90;;;;;;20759679;28;20084;-80
2023/04/12 20:00:24;;;;;;;4.30;1.60;;;7.90;99.90;;;;;;20764604;28;20029;-81
2023/04/12 20:10:25;;;;;;;2.78;1.00;;;7.80;99.90;;;;;;20756130;28;20044;-79
2023/04/12 20:20:26;;;;;;;6.67;1.93;;;7.70;99.90;;;;;;20761139;28;20022;-81
2023/04/12 20:30:27;;;;;;;7.03;1.63;;;7.70;99.90;;;;;;20773926;28;20053;-80
2023/04/12 20:40:28;;;;;;;0.75;0.50;;;7.80;99.90;;;;;;20768680;28;20041;-81
2023/04/12 20:50:29;;;;;;;2.45;0.88;;;7.30;99.90;;;;;;20773866;28;20512;-80
2023/04/12 21:00:31;;;;;;;1.05;0.45;;;7.10;99.90;;;;;;20777144;28;20068;-81
2023/04/12 21:10:32;;;;;;;0.90;0.50;;;6.80;99.90;;;;;;20794448;28;20144;-79
2023/04/12 21:20:33;;;;;;;0.75;0.47;;;6.60;99.90;;;;;;20773560;28;20086;-80
2023/04/12 21:30:34;;;;;;;0.45;0.40;;;6.50;99.90;;;;;;20775329;28;20038;-81
2023/04/12 21:40:35;;;;;;;0.70;0.60;;;6.50;99.90;;;;;;20766905;28;20477;-81
2023/04/12 21:50:36;;;;;;;0.77;0.32;;;6.30;99.90;;;;;;20767641;28;20054;-81
2023/04/12 22:00:37;;;;;;;1.25;0.75;;;6.30;99.90;;;;;;20766340;28;20064;-80
2023/04/12 22:10:38;;;;;;;;;;;6.20;99.90;;;;;;20766070;28;20034;-80
2023/04/12 22:20:40;;;;;;;0.93;0.70;;;6.20;99.90;;;;;;20766856;28;20422;-81
2023/04/12 22:30:40;;;;;;;1.35;0.75;;;6.20;99.90;;;;;;20797041;28;20284;-81
2023/04/12 22:40:41;;;;;;;;;;;6.30;99.90;;;;;;20844761;28;20555;-80
2023/04/12 22:50:43;;;;;;;5.33;1.13;;;6.30;99.90;;;;;;20843093;28;19920;-78
2023/04/12 23:00:44;;;;;;;1.80;0.80;;;6.20;99.90;;;;;;20804028;28;20624;-81
2023/04/12 23:10:45;;;;;;;;;;;6.30;99.90;;;;;;20763386;28;20121;-80
2023/04/12 23:20:48;;;;;;;1.13;0.87;;;6.30;99.90;;;;;;20778441;28;19909;-78
2023/04/12 23:30:50;;;;;;;2.50;1.10;;;6.30;99.90;;;;;;20764711;28;20312;-81
2023/04/12 23:40:53;;;;;;;1.95;0.80;;;6.20;99.90;;;;;;20766749;28;20033;-81
2023/04/12 23:50:54;;;;;;;1.92;1.05;;;6.20;99.90;;;;;;20766813;28;20073;-81
